Terminal Aerodrome Forecast
Issued by NWS Upton, NY

Home | Current Version | Previous Version | Text Only | Print | Product List | Glossary On
Versions: 1 2 3 4 5 6 7 8 9 10 11 12 13 14 15 16 17 18 19 20 21 22 23 24 25 26 27 28 29
000
FTUS41 KOKX 131700
TAFEWR
TAF
KEWR 131724Z 1318/1424 19012KT P6SM BKN030 BKN060 BKN100
     FM132000 19014G20KT P6SM BKN060 BKN150
     FM140000 20009KT P6SM BKN060 BKN100
      TEMPO 1401/1404 4SM TSRA BKN040CB
     FM140700 22008KT 4SM BR SCT006 BKN040 BKN080
     FM141500 22010KT P6SM SCT020 BKN040
     FM141800 20012KT P6SM BKN050 PROB30 1418/1424 TSRA BKN040CB=

USA.gov is the U.S. government's official web portal to all federal, state and local government web resources and services.